Time;durP1;ratioP1;P1;durP2;ratioP2;P2;SDS_P1;SDS_P2;PMS_P1;PMS_P2;Temp;Humidity;BMP_temperature;BMP_pressure;BME280_temperature;BME280_humidity;BME280_pressure;Samples;Min_cycle;Max_cycle;Signal;HPM_P1;HPM_P2
2021/04/21 00:00:51;;;;;;;;;;;;;;;10.93;92.78;98969.34;4896568;29;19923;-91
2021/04/21 00:03:16;;;;;;;;;;;;;;;10.81;94.22;98970.63;4905625;29;19930;-90
2021/04/21 00:05:41;;;;;;;;;;;;;;;10.88;93.86;98961.78;4903756;29;20290;-90
2021/04/21 00:08:06;;;;;;;;;;;;;;;10.88;93.85;98964.38;4904061;29;19930;-91
2021/04/21 00:10:32;;;;;;;;;;;;;;;10.54;96.12;98964.66;4904302;29;19923;-90
2021/04/21 00:12:57;;;;;;;;;;;;;;;10.51;96.43;98962.16;4903579;29;19974;-90
2021/04/21 00:15:23;;;;;;;;;;;;;;;10.54;96.42;98956.91;4896774;29;19926;-91
2021/04/21 00:17:50;;;;;;;;;;;;;;;10.64;96.34;98960.84;4904339;29;20017;-90
2021/04/21 00:20:16;;;;;;;;;;;;;;;10.40;97.00;98957.38;4895604;29;19922;-91
2021/04/21 00:22:42;;;;;;;;;;;;;;;10.29;98.65;98956.03;4904373;29;19922;-90
2021/04/21 00:25:09;;;;;;;;;;;;;;;10.14;99.50;98962.44;4896502;29;19930;-90
2021/04/21 00:27:34;;;;;;;;;;;;;;;9.89;100.00;98952.88;4905265;29;19957;-91
2021/04/21 00:30:05;;;;;;;;;;;;;;;10.20;99.51;98954.53;4903622;29;19962;-89
2021/04/21 00:32:31;;;;;;;;;;;;;;;10.20;99.51;98951.97;4892926;29;20378;-91
2021/04/21 00:34:56;;;;;;;;;;;;;;;10.21;99.41;98948.50;4904668;29;19997;-92
2021/04/21 00:37:25;;;;;;;;;;;;;;;9.97;100.00;98940.66;4896431;29;20454;-91
2021/04/21 00:39:51;;;;;;;;;;;;;;;10.19;99.06;98945.97;4895409;29;19927;-90
2021/04/21 00:42:21;;;;;;;;;;;;;;;10.07;99.10;98946.34;4902569;29;20382;-90
2021/04/21 00:44:54;;;;;;;;;;;;;;;10.12;99.04;98944.47;4903969;29;19927;-89
2021/04/21 00:47:21;;;;;;;;;;;;;;;10.41;98.02;98947.91;4901640;29;19927;-91
2021/04/21 00:49:50;;;;;;;;;;;;;;;10.15;98.29;98948.69;4887476;29;19919;-90
2021/04/21 00:52:17;;;;;;;;;;;;;;;10.22;99.17;98952.78;4885993;29;19933;-91
2021/04/21 00:55:02;;;;;;;;;;;;;;;10.11;97.99;98945.38;4901531;29;19926;-91
2021/04/21 00:57:37;;;;;;;;;;;;;;;10.16;99.21;98950.38;4909538;29;19923;-91
2021/04/21 01:00:12;;;;;;;;;;;;;;;10.23;98.16;98951.88;4908125;29;19982;-90
2021/04/21 01:02:41;;;;;;;;;;;;;;;10.02;98.92;98949.06;4926129;29;20748;-90
2021/04/21 01:05:09;;;;;;;;;;;;;;;9.88;99.62;98940.94;4902154;29;20395;-90
2021/04/21 01:07:34;;;;;;;;;;;;;;;9.92;99.47;98945.09;4918044;29;20458;-91
2021/04/21 01:10:00;;;;;;;;;;;;;;;9.87;99.46;98934.09;4900810;29;19923;-90
2021/04/21 01:12:25;;;;;;;;;;;;;;;9.98;98.83;98942.31;4903089;29;20288;-91
2021/04/21 01:14:51;;;;;;;;;;;;;;;10.07;98.48;98946.34;4902953;29;19923;-90
2021/04/21 01:17:16;;;;;;;;;;;;;;;9.98;98.46;98941.50;4901276;29;19922;-91
2021/04/21 01:19:48;;;;;;;;;;;;;;;9.67;100.00;98936.41;4902452;29;19933;-91
2021/04/21 01:22:15;;;;;;;;;;;;;;;9.81;100.00;98942.84;4893773;29;19922;-90
2021/04/21 01:24:49;;;;;;;;;;;;;;;9.75;99.87;98932.72;4903436;29;19925;-91
2021/04/21 01:27:16;;;;;;;;;;;;;;;9.72;100.00;98930.25;4909741;29;19923;-91
2021/04/21 01:29:43;;;;;;;;;;;;;;;9.81;99.28;98936.88;4894390;29;20928;-91
2021/04/21 01:32:13;;;;;;;;;;;;;;;9.69;99.84;98929.50;4902751;29;19930;-90
2021/04/21 01:34:38;;;;;;;;;;;;;;;9.54;100.00;98926.50;4901564;29;20672;-89
2021/04/21 01:37:05;;;;;;;;;;;;;;;9.41;100.00;98925.16;4885548;29;19990;-91
2021/04/21 01:39:31;;;;;;;;;;;;;;;9.27;100.00;98927.28;4909490;29;19927;-90
2021/04/21 01:41:56;;;;;;;;;;;;;;;9.23;100.00;98930.81;4902712;29;19934;-91
2021/04/21 01:44:22;;;;;;;;;;;;;;;9.28;100.00;98929.78;4899985;29;19948;-91
2021/04/21 01:46:52;;;;;;;;;;;;;;;9.14;100.00;98930.19;4910303;29;20423;-90
2021/04/21 01:49:20;;;;;;;;;;;;;;;9.25;100.00;98929.06;4888947;29;19919;-91
2021/04/21 01:51:46;;;;;;;;;;;;;;;9.23;100.00;98925.69;4909473;29;20380;-90
2021/04/21 01:54:15;;;;;;;;;;;;;;;9.15;100.00;98928.47;4896757;29;19934;-90
2021/04/21 01:56:48;;;;;;;;;;;;;;;8.68;100.00;98931.38;4900222;29;19929;-91
2021/04/21 01:59:16;;;;;;;;;;;;;;;9.00;100.00;98925.41;4893469;29;19927;-91
2021/04/21 02:01:43;;;;;;;;;;;;;;;9.15;100.00;98924.16;4900294;29;20474;-89
2021/04/21 02:04:15;;;;;;;;;;;;;;;8.78;100.00;98932.84;4890674;29;19927;-91
2021/04/21 02:06:43;;;;;;;;;;;;;;;8.72;100.00;98927.88;4907835;29;20017;-92
2021/04/21 02:09:11;;;;;;;;;;;;;;;8.84;100.00;98928.44;4898147;29;19954;-89
2021/04/21 02:11:38;;;;;;;;;;;;;;;8.86;100.00;98930.06;4886899;29;19973;-91
2021/04/21 02:14:27;;;;;;;;;;;;;;;8.96;100.00;98933.25;4894178;29;19922;-91
2021/04/21 02:17:02;;;;;;;;;;;;;;;8.87;100.00;98925.78;4892160;29;19950;-90
2021/04/21 02:19:27;;;;;;;;;;;;;;;8.63;100.00;98930.69;4909300;29;19925;-92
2021/04/21 02:21:55;;;;;;;;;;;;;;;8.57;100.00;98928.25;4910231;29;19927;-91
2021/04/21 02:24:24;;;;;;;;;;;;;;;8.46;100.00;98925.09;4911238;29;19925;-90
2021/04/21 02:26:50;;;;;;;;;;;;;;;8.35;100.00;98920.22;4900223;29;19938;-91
2021/04/21 02:29:15;;;;;;;;;;;;;;;8.16;100.00;98922.38;4886268;29;19922;-91
2021/04/21 02:32:01;;;;;;;;;;;;;;;8.45;100.00;98928.56;4910842;29;20504;-93
2021/04/21 02:34:34;;;;;;;;;;;;;;;8.79;100.00;98926.00;4899731;29;19927;-92
2021/04/21 02:37:09;;;;;;;;;;;;;;;8.76;100.00;98924.34;4901028;29;19977;-93
2021/04/21 02:39:55;;;;;;;;;;;;;;;8.49;100.00;98925.06;4909587;29;19934;-92
2021/04/21 02:42:27;;;;;;;;;;;;;;;8.39;100.00;98924.38;4894823;29;19923;-92
2021/04/21 02:45:04;;;;;;;;;;;;;;;8.17;100.00;98921.50;4901947;29;20684;-92
2021/04/21 02:47:36;;;;;;;;;;;;;;;8.09;100.00;98923.38;4910138;29;19930;-92
2021/04/21 02:50:04;;;;;;;;;;;;;;;8.12;100.00;98925.91;4909292;29;20406;-92
2021/04/21 02:53:06;;;;;;;;;;;;;;;8.02;100.00;98926.97;4909685;29;19965;-92
2021/04/21 02:55:35;;;;;;;;;;;;;;;7.90;100.00;98923.81;4870061;29;19930;-92
2021/04/21 02:58:16;;;;;;;;;;;;;;;7.85;100.00;98922.25;4887802;29;19926;-92
2021/04/21 03:00:43;;;;;;;;;;;;;;;8.32;100.00;98920.28;4924858;29;19970;-91
2021/04/21 03:03:27;;;;;;;;;;;;;;;8.53;100.00;98924.06;4904374;29;19926;-92
2021/04/21 03:06:12;;;;;;;;;;;;;;;8.17;100.00;98917.22;4900362;29;19949;-93
2021/04/21 03:08:41;;;;;;;;;;;;;;;7.94;100.00;98922.03;4890026;29;19958;-92
2021/04/21 03:11:12;;;;;;;;;;;;;;;8.02;100.00;98921.84;4913044;29;19926;-93
2021/04/21 03:13:41;;;;;;;;;;;;;;;8.21;100.00;98922.25;4926214;29;19954;-92
2021/04/21 03:16:07;;;;;;;;;;;;;;;8.10;100.00;98915.66;4899844;29;19930;-92
2021/04/21 03:18:33;;;;;;;;;;;;;;;8.09;100.00;98918.25;4892205;29;19962;-92
2021/04/21 03:20:59;;;;;;;;;;;;;;;7.84;100.00;98918.81;4898553;29;19966;-92
2021/04/21 03:23:25;;;;;;;;;;;;;;;8.21;100.00;98918.00;4895682;29;19950;-92
2021/04/21 03:25:52;;;;;;;;;;;;;;;8.30;100.00;98922.91;4893401;29;20419;-91
2021/04/21 03:28:18;;;;;;;;;;;;;;;8.28;100.00;98916.97;4908749;29;20413;-91
2021/04/21 03:30:44;;;;;;;;;;;;;;;8.16;100.00;98919.81;4899201;29;19930;-92
2021/04/21 03:33:13;;;;;;;;;;;;;;;8.33;100.00;98920.25;4905773;29;19919;-92
2021/04/21 03:35:39;;;;;;;;;;;;;;;8.30;100.00;98916.91;4921875;29;20005;-94
2021/04/21 03:38:04;;;;;;;;;;;;;;;8.09;100.00;98910.56;4909022;29;20330;-93
2021/04/21 03:40:30;;;;;;;;;;;;;;;8.18;100.00;98912.91;4914507;29;19926;-93
2021/04/21 03:42:55;;;;;;;;;;;;;;;7.94;100.00;98920.31;4906686;29;19922;-93
2021/04/21 03:45:21;;;;;;;;;;;;;;;8.13;100.00;98914.75;4906823;29;19923;-94
2021/04/21 03:47:46;;;;;;;;;;;;;;;8.02;100.00;98917.56;4907563;29;19975;-93
2021/04/21 03:50:12;;;;;;;;;;;;;;;7.70;100.00;98915.72;4905941;29;20064;-94
2021/04/21 03:52:39;;;;;;;;;;;;;;;7.79;100.00;98917.25;4910708;29;20247;-93
2021/04/21 03:55:05;;;;;;;;;;;;;;;7.64;100.00;98913.28;4905354;29;19930;-94
2021/04/21 03:57:30;;;;;;;;;;;;;;;7.61;100.00;98915.91;4910624;29;19922;-95
2021/04/21 03:59:56;;;;;;;;;;;;;;;7.53;100.00;98914.38;4916468;29;19954;-93
2021/04/21 04:02:22;;;;;;;;;;;;;;;7.66;100.00;98916.66;4913811;29;20295;-94
2021/04/21 04:04:48;;;;;;;;;;;;;;;7.84;100.00;98913.69;4905854;29;19922;-94
2021/04/21 04:07:14;;;;;;;;;;;;;;;7.84;100.00;98912.84;4885447;29;20153;-88
2021/04/21 04:09:39;;;;;;;;;;;;;;;7.94;100.00;98917.75;4902710;29;20508;-88
2021/04/21 04:12:06;;;;;;;;;;;;;;;8.05;100.00;98916.63;4902821;29;19934;-87
2021/04/21 04:14:34;;;;;;;;;;;;;;;8.09;100.00;98916.53;4917992;29;19927;-87
2021/04/21 04:17:00;;;;;;;;;;;;;;;8.07;100.00;98915.72;4902056;29;19934;-86
2021/04/21 04:19:25;;;;;;;;;;;;;;;7.88;100.00;98919.59;4902603;29;20126;-86
2021/04/21 04:21:54;;;;;;;;;;;;;;;7.75;100.00;98919.00;4917341;29;20742;-87
2021/04/21 04:24:20;;;;;;;;;;;;;;;7.70;100.00;98915.72;4884443;29;19931;-87
2021/04/21 04:26:45;;;;;;;;;;;;;;;7.51;100.00;98918.69;4904541;29;20397;-93
2021/04/21 04:29:11;;;;;;;;;;;;;;;7.64;100.00;98918.41;4905806;29;19946;-92
2021/04/21 04:31:37;;;;;;;;;;;;;;;7.60;100.00;98921.94;4907461;29;20041;-93
2021/04/21 04:34:06;;;;;;;;;;;;;;;7.97;100.00;98924.53;4914216;29;19923;-92
2021/04/21 04:36:35;;;;;;;;;;;;;;;7.84;100.00;98918.81;4897297;29;19995;-92
2021/04/21 04:39:02;;;;;;;;;;;;;;;7.80;100.00;98919.78;4907068;29;19927;-92
2021/04/21 04:41:29;;;;;;;;;;;;;;;8.02;100.00;98929.53;4909224;29;19922;-92
2021/04/21 04:43:55;;;;;;;;;;;;;;;7.97;100.00;98927.09;4908432;29;19923;-92
2021/04/21 04:46:20;;;;;;;;;;;;;;;7.94;100.00;98930.56;4893897;29;19922;-93
2021/04/21 04:48:48;;;;;;;;;;;;;;;8.06;100.00;98929.44;4906942;29;19946;-92
2021/04/21 04:51:13;;;;;;;;;;;;;;;7.83;100.00;98937.66;4890892;29;19922;-90
2021/04/21 04:53:39;;;;;;;;;;;;;;;7.92;100.00;98932.31;4899172;29;19927;-92
2021/04/21 04:56:06;;;;;;;;;;;;;;;8.21;100.00;98927.38;4904265;29;19974;-92
2021/04/21 04:58:31;;;;;;;;;;;;;;;8.16;100.00;98925.78;4905058;29;19922;-93
2021/04/21 05:00:58;;;;;;;;;;;;;;;8.20;100.00;98930.84;4906063;29;19930;-92
2021/04/21 05:03:23;;;;;;;;;;;;;;;8.26;100.00;98935.84;4895690;29;19923;-93
2021/04/21 05:05:55;;;;;;;;;;;;;;;8.31;100.00;98939.97;4909018;29;19926;-92
2021/04/21 05:08:21;;;;;;;;;;;;;;;8.30;100.00;98943.44;4904001;29;19923;-91
2021/04/21 05:10:59;;;;;;;;;;;;;;;8.54;100.00;98946.31;4911842;29;19919;-92
2021/04/21 05:13:24;;;;;;;;;;;;;;;8.40;100.00;98943.22;4936057;29;19923;-92
2021/04/21 05:15:50;;;;;;;;;;;;;;;8.57;100.00;98947.06;4912783;29;20015;-91
2021/04/21 05:18:15;;;;;;;;;;;;;;;8.49;100.00;98948.16;4921166;29;20167;-93
2021/04/21 05:20:53;;;;;;;;;;;;;;;8.82;100.00;98949.00;4918765;29;19919;-93
2021/04/21 05:23:21;;;;;;;;;;;;;;;8.86;100.00;98952.34;4937889;29;19922;-93
2021/04/21 05:25:50;;;;;;;;;;;;;;;8.89;100.00;98957.41;4932024;29;19930;-92
2021/04/21 05:28:30;;;;;;;;;;;;;;;9.11;100.00;98955.13;4932169;29;20298;-93
2021/04/21 05:31:16;;;;;;;;;;;;;;;8.83;100.00;98963.56;4920390;29;19926;-92
2021/04/21 05:34:00;;;;;;;;;;;;;;;9.15;100.00;98961.88;4910809;29;19973;-93
2021/04/21 05:36:44;;;;;;;;;;;;;;;9.16;100.00;98961.81;4914109;29;20384;-92
2021/04/21 05:39:17;;;;;;;;;;;;;;;9.19;100.00;98964.31;4912708;29;19927;-90
2021/04/21 05:41:55;;;;;;;;;;;;;;;9.30;100.00;98968.31;4890109;29;19998;-91
2021/04/21 05:45:03;;;;;;;;;;;;;;;9.49;100.00;98963.50;4919986;29;19941;-92
2021/04/21 05:47:32;;;;;;;;;;;;;;;9.37;100.00;98967.25;4933973;29;19948;-92
2021/04/21 05:50:14;;;;;;;;;;;;;;;9.56;100.00;98971.00;4920680;29;19923;-92
2021/04/21 05:52:57;;;;;;;;;;;;;;;9.82;100.00;98959.94;4897996;29;20239;-91
2021/04/21 05:55:32;;;;;;;;;;;;;;;9.79;100.00;98966.94;4913760;29;19944;-92
2021/04/21 05:58:17;;;;;;;;;;;;;;;9.82;100.00;98970.22;4907702;29;19927;-93
2021/04/21 06:01:01;;;;;;;;;;;;;;;9.48;100.00;98975.50;4903349;29;20155;-92
2021/04/21 06:03:26;;;;;;;;;;;;;;;9.72;100.00;98975.72;4912401;29;19919;-90
2021/04/21 06:06:00;;;;;;;;;;;;;;;9.49;100.00;98979.78;4916797;29;20306;-93
2021/04/21 06:08:25;;;;;;;;;;;;;;;9.46;100.00;98984.97;4897187;29;19923;-93
2021/04/21 06:10:51;;;;;;;;;;;;;;;9.85;100.00;98979.59;4905876;29;19934;-93
2021/04/21 06:13:16;;;;;;;;;;;;;;;9.91;100.00;98982.00;4913965;29;19922;-93
2021/04/21 06:15:43;;;;;;;;;;;;;;;10.05;100.00;98981.56;4908153;29;19922;-94
2021/04/21 06:18:09;;;;;;;;;;;;;;;10.32;100.00;98974.78;4908034;29;20426;-93
2021/04/21 06:20:36;;;;;;;;;;;;;;;10.19;100.00;98976.00;4909118;29;19923;-92
2021/04/21 06:23:06;;;;;;;;;;;;;;;10.50;100.00;98969.94;4911163;29;20002;-91
2021/04/21 06:25:32;;;;;;;;;;;;;;;10.57;100.00;98979.16;4898926;29;19922;-92
2021/04/21 06:28:07;;;;;;;;;;;;;;;10.75;100.00;98975.97;4914488;29;19990;-92
2021/04/21 06:30:33;;;;;;;;;;;;;;;10.37;100.00;98980.59;4911846;29;19930;-92
2021/04/21 06:32:59;;;;;;;;;;;;;;;10.86;100.00;98975.63;4902979;29;19918;-92
2021/04/21 06:35:27;;;;;;;;;;;;;;;11.01;100.00;98981.97;4909933;29;20006;-92
2021/04/21 06:37:53;;;;;;;;;;;;;;;11.30;100.00;98983.53;4887210;29;19923;-91
2021/04/21 06:40:19;;;;;;;;;;;;;;;11.07;100.00;98990.34;4903572;29;19931;-92
2021/04/21 06:42:45;;;;;;;;;;;;;;;11.57;100.00;98981.72;4908723;29;19947;-93
2021/04/21 06:45:11;;;;;;;;;;;;;;;11.84;98.27;98985.03;4903380;29;19922;-93
2021/04/21 06:47:37;;;;;;;;;;;;;;;11.92;98.53;98982.19;4929396;29;20013;-93
2021/04/21 06:50:10;;;;;;;;;;;;;;;12.22;98.04;98989.66;4914618;29;20415;-90
2021/04/21 06:52:41;;;;;;;;;;;;;;;12.51;97.00;98984.16;4932490;29;19933;-92
2021/04/21 06:55:10;;;;;;;;;;;;;;;12.82;95.67;98988.09;4897906;29;19997;-92
2021/04/21 06:57:36;;;;;;;;;;;;;;;12.46;97.80;98993.84;4901998;29;20026;-92
2021/04/21 07:00:05;;;;;;;;;;;;;;;12.44;97.98;98994.81;4904614;29;19990;-94
2021/04/21 07:02:45;;;;;;;;;;;;;;;11.76;99.75;98999.09;4904625;29;20009;-94
2021/04/21 07:05:30;;;;;;;;;;;;;;;11.83;99.25;98995.41;4901242;29;20013;-94
2021/04/21 07:08:14;;;;;;;;;;;;;;;11.19;100.00;98996.81;4921576;29;19923;-89
2021/04/21 07:10:49;;;;;;;;;;;;;;;12.06;100.00;98990.22;4929243;29;20025;-94
2021/04/21 07:13:18;;;;;;;;;;;;;;;11.86;100.00;98993.56;4913169;29;19923;-87
2021/04/21 07:15:44;;;;;;;;;;;;;;;11.38;100.00;98996.16;4915947;29;19929;-87
2021/04/21 07:18:16;;;;;;;;;;;;;;;11.20;100.00;99001.09;4899360;29;21123;-88
2021/04/21 07:20:42;;;;;;;;;;;;;;;11.39;100.00;99005.59;4899218;29;19986;-86
2021/04/21 07:23:08;;;;;;;;;;;;;;;11.23;100.00;98998.38;4898518;29;19919;-87
2021/04/21 07:25:40;;;;;;;;;;;;;;;11.46;100.00;98999.31;4897569;29;20360;-87
2021/04/21 07:28:05;;;;;;;;;;;;;;;11.67;100.00;98998.53;4881479;29;19966;-87
2021/04/21 07:30:32;;;;;;;;;;;;;;;11.97;100.00;99000.91;4895508;29;20545;-87
2021/04/21 07:32:58;;;;;;;;;;;;;;;12.25;100.00;99003.28;4896969;29;19927;-88
2021/04/21 07:35:25;;;;;;;;;;;;;;;11.76;100.00;99009.44;4898825;29;19922;-87
2021/04/21 07:37:51;;;;;;;;;;;;;;;12.13;100.00;99003.75;4897137;29;20599;-87
2021/04/21 07:40:24;;;;;;;;;;;;;;;11.78;100.00;99012.78;4867499;29;19950;-87
2021/04/21 07:42:49;;;;;;;;;;;;;;;12.17;100.00;99001.91;4896795;29;19927;-87
2021/04/21 07:45:16;;;;;;;;;;;;;;;12.38;100.00;99011.38;4886275;29;20409;-87
2021/04/21 07:47:41;;;;;;;;;;;;;;;12.13;100.00;99020.09;4898636;29;19926;-87
2021/04/21 07:50:09;;;;;;;;;;;;;;;12.16;100.00;99019.13;4868345;29;19923;-87
2021/04/21 07:52:35;;;;;;;;;;;;;;;12.43;100.00;99019.81;4896858;29;19918;-88
2021/04/21 07:55:21;;;;;;;;;;;;;;;12.71;100.00;99018.72;4895479;29;19923;-88
2021/04/21 07:58:04;;;;;;;;;;;;;;;12.34;100.00;99018.44;4895938;29;20010;-88
2021/04/21 08:00:30;;;;;;;;;;;;;;;12.44;100.00;99031.81;4900216;29;20359;-87
2021/04/21 08:02:57;;;;;;;;;;;;;;;12.47;100.00;99026.50;4897549;29;20026;-91
2021/04/21 08:05:22;;;;;;;;;;;;;;;12.68;100.00;99029.16;4897093;29;19966;-88
2021/04/21 08:08:01;;;;;;;;;;;;;;;12.79;100.00;99024.38;4900367;29;20375;-85
2021/04/21 08:10:32;;;;;;;;;;;;;;;14.17;100.00;99026.19;4898429;29;20033;-85
2021/04/21 08:12:58;;;;;;;;;;;;;;;12.81;100.00;99024.34;4916999;29;19927;-85
2021/04/21 08:15:28;;;;;;;;;;;;;;;12.69;100.00;99031.69;4901220;29;19923;-85
2021/04/21 08:17:54;;;;;;;;;;;;;;;14.05;99.51;99026.78;4915259;29;19923;-85
2021/04/21 08:20:43;;;;;;;;;;;;;;;14.05;96.13;99026.78;4898113;29;20430;-84
2021/04/21 08:23:09;;;;;;;;;;;;;;;14.10;98.37;99030.00;4892577;29;19926;-85
2021/04/21 08:25:35;;;;;;;;;;;;;;;13.77;99.24;99038.34;4917788;29;21116;-85
2021/04/21 08:28:00;;;;;;;;;;;;;;;14.10;97.16;99035.16;4896224;29;19923;-85
2021/04/21 08:30:29;;;;;;;;;;;;;;;13.42;96.88;99032.16;4890791;29;19974;-86
2021/04/21 08:32:54;;;;;;;;;;;;;;;13.80;95.31;99043.41;4917528;29;20018;-85
2021/04/21 08:35:20;;;;;;;;;;;;;;;13.45;97.01;99033.75;4900138;29;19933;-85
2021/04/21 08:37:46;;;;;;;;;;;;;;;13.05;95.01;99035.44;4896137;29;19923;-85
2021/04/21 08:40:12;;;;;;;;;;;;;;;13.74;97.00;99040.25;4897378;29;20315;-85
2021/04/21 08:42:39;;;;;;;;;;;;;;;13.37;96.81;99044.44;4899798;29;20340;-86
2021/04/21 08:45:05;;;;;;;;;;;;;;;13.66;93.91;99050.09;4918192;29;20391;-85
2021/04/21 08:47:31;;;;;;;;;;;;;;;14.51;91.74;99054.88;4885265;29;19927;-84
2021/04/21 08:49:56;;;;;;;;;;;;;;;14.20;94.42;99041.59;4900138;29;20415;-85
2021/04/21 08:52:22;;;;;;;;;;;;;;;13.29;94.00;99049.94;4900669;29;19978;-84
2021/04/21 08:54:49;;;;;;;;;;;;;;;13.25;96.01;99045.78;4915056;29;20591;-84
2021/04/21 08:57:15;;;;;;;;;;;;;;;13.04;92.22;99046.66;4916476;29;20701;-85
2021/04/21 08:59:41;;;;;;;;;;;;;;;13.38;96.68;99057.28;4916271;29;19928;-84
2021/04/21 09:02:07;;;;;;;;;;;;;;;13.49;95.59;99056.84;4916234;29;20106;-85
2021/04/21 09:04:32;;;;;;;;;;;;;;;13.12;97.72;99060.94;4898523;29;20298;-84
2021/04/21 09:06:58;;;;;;;;;;;;;;;13.53;83.45;99058.41;4899199;29;19966;-85
2021/04/21 09:09:23;;;;;;;;;;;;;;;13.86;91.59;99059.56;4894064;29;20430;-85
2021/04/21 09:11:48;;;;;;;;;;;;;;;13.77;86.40;99058.22;4899094;29;19933;-86
2021/04/21 09:14:14;;;;;;;;;;;;;;;13.74;82.08;99059.19;4896243;29;19930;-85
2021/04/21 09:16:40;;;;;;;;;;;;;;;13.90;78.00;99068.88;4899702;29;19933;-86
2021/04/21 09:19:09;;;;;;;;;;;;;;;14.33;65.84;99064.34;4915869;29;20005;-85
2021/04/21 09:21:35;;;;;;;;;;;;;;;14.23;66.84;99062.19;4899453;29;20799;-85
2021/04/21 09:24:00;;;;;;;;;;;;;;;13.78;59.15;99062.50;4899062;29;19923;-86
2021/04/21 09:26:27;;;;;;;;;;;;;;;14.42;57.40;99059.56;4903060;29;20295;-87
2021/04/21 09:28:55;;;;;;;;;;;;;;;14.62;58.88;99070.81;4899402;29;20060;-87
2021/04/21 09:31:25;;;;;;;;;;;;;;;15.30;61.23;99063.13;4901067;29;19933;-87
2021/04/21 09:34:10;;;;;;;;;;;;;;;14.89;63.92;99065.19;4896062;29;19929;-86
2021/04/21 09:36:38;;;;;;;;;;;;;;;14.99;66.96;99069.84;4899953;29;19922;-86
2021/04/21 09:39:10;;;;;;;;;;;;;;;14.34;54.43;99069.44;4915939;29;19927;-86
2021/04/21 09:41:37;;;;;;;;;;;;;;;14.88;53.78;99068.69;4894502;29;20449;-86
2021/04/21 09:44:20;;;;;;;;;;;;;;;14.87;50.66;99067.00;4896156;29;19923;-88
2021/04/21 09:46:46;;;;;;;;;;;;;;;15.34;50.67;99072.44;4916251;29;19973;-86
2021/04/21 09:49:32;;;;;;;;;;;;;;;14.18;54.14;99068.47;4899064;29;19922;-86
2021/04/21 09:52:02;;;;;;;;;;;;;;;14.58;57.36;99071.84;4915787;29;19927;-87
2021/04/21 09:54:37;;;;;;;;;;;;;;;16.02;50.07;99069.00;4901176;29;19918;-88
2021/04/21 09:57:06;;;;;;;;;;;;;;;15.44;51.30;99076.25;4897136;29;19923;-87
2021/04/21 09:59:32;;;;;;;;;;;;;;;15.41;51.13;99071.22;4900544;29;19925;-88
2021/04/21 10:01:57;;;;;;;;;;;;;;;15.39;46.32;99072.22;4898877;29;20492;-88
2021/04/21 10:04:25;;;;;;;;;;;;;;;16.26;43.51;99069.41;4888558;29;20303;-87
2021/04/21 10:06:51;;;;;;;;;;;;;;;16.54;52.80;99060.97;4893254;29;19938;-85
2021/04/21 10:09:23;;;;;;;;;;;;;;;18.39;45.74;99062.19;4912739;29;19923;-86
2021/04/21 10:11:49;;;;;;;;;;;;;;;14.83;49.41;99066.34;4897662;29;19934;-86
2021/04/21 10:14:15;;;;;;;;;;;;;;;15.20;49.44;99069.72;4899283;29;20339;-86
2021/04/21 10:16:41;;;;;;;;;;;;;;;15.75;44.40;99061.72;4897352;29;19974;-86
2021/04/21 10:19:06;;;;;;;;;;;;;;;16.95;39.53;99051.78;4898374;29;19938;-86
2021/04/21 10:21:33;;;;;;;;;;;;;;;18.80;44.75;99056.13;4900072;29;19918;-86
2021/04/21 10:23:58;;;;;;;;;;;;;;;16.77;46.40;99057.06;4899172;29;19945;-86
2021/04/21 10:26:23;;;;;;;;;;;;;;;16.25;44.28;99067.75;4896273;29;20360;-85
2021/04/21 10:28:49;;;;;;;;;;;;;;;16.51;42.88;99066.31;4901569;23;21044;-86
2021/04/21 10:31:17;;;;;;;;;;;;;;;16.58;45.98;99062.47;4894727;29;19930;-86
2021/04/21 10:33:43;;;;;;;;;;;;;;;15.18;52.59;99079.31;4864648;29;19934;-85
2021/04/21 10:36:09;;;;;;;;;;;;;;;14.51;46.34;99080.78;4866542;29;19966;-85
2021/04/21 10:38:35;;;;;;;;;;;;;;;15.02;46.86;99074.03;4871606;29;19984;-86
2021/04/21 10:41:19;;;;;;;;;;;;;;;16.37;51.92;99069.66;4861685;29;20503;-86
2021/04/21 10:43:44;;;;;;;;;;;;;;;18.45;41.87;99062.72;4890472;29;19938;-87
2021/04/21 10:46:10;;;;;;;;;;;;;;;17.11;42.37;99071.63;4878196;29;20008;-86
2021/04/21 10:48:44;;;;;;;;;;;;;;;16.27;49.35;99074.53;4863459;29;20018;-85
2021/04/21 10:51:29;;;;;;;;;;;;;;;17.75;49.25;99066.16;4896070;29;19927;-86
2021/04/21 10:53:59;;;;;;;;;;;;;;;17.46;42.44;99071.31;4892891;29;20017;-84
2021/04/21 10:56:24;;;;;;;;;;;;;;;17.18;43.91;99064.28;4866682;29;19929;-84
2021/04/21 10:58:59;;;;;;;;;;;;;;;19.17;46.40;99058.91;4876720;29;20115;-85
2021/04/21 11:01:28;;;;;;;;;;;;;;;20.17;45.44;99059.13;4890768;29;19947;-85
2021/04/21 11:03:53;;;;;;;;;;;;;;;16.01;45.45;99073.34;4893625;29;19923;-84
2021/04/21 11:06:39;;;;;;;;;;;;;;;16.83;44.64;99063.69;4888397;29;19938;-84
2021/04/21 11:09:06;;;;;;;;;;;;;;;19.73;41.19;99055.19;4894450;29;20040;-85
2021/04/21 11:11:40;;;;;;;;;;;;;;;17.65;44.17;99054.59;4858136;29;20610;-84
2021/04/21 11:14:05;;;;;;;;;;;;;;;16.35;44.10;99060.28;4877976;29;20415;-84
2021/04/21 11:16:30;;;;;;;;;;;;;;;16.96;41.90;99051.69;4890113;29;20006;-84
2021/04/21 11:19:16;;;;;;;;;;;;;;;15.67;48.13;99063.88;4893856;29;19919;-84
2021/04/21 11:21:41;;;;;;;;;;;;;;;15.31;46.69;99062.22;4870868;29;19923;-84
2021/04/21 11:24:07;;;;;;;;;;;;;;;14.94;47.50;99071.84;4877307;29;19935;-84
2021/04/21 11:26:33;;;;;;;;;;;;;;;15.16;45.05;99061.22;4892567;29;19923;-84
2021/04/21 11:28:59;;;;;;;;;;;;;;;17.41;45.77;99052.53;4868132;29;19934;-83
2021/04/21 11:31:44;;;;;;;;;;;;;;;16.30;42.08;99063.13;4866553;29;19979;-84
2021/04/21 11:34:18;;;;;;;;;;;;;;;15.95;43.13;99059.84;4893218;29;20376;-84
2021/04/21 11:36:48;;;;;;;;;;;;;;;16.80;46.43;99051.72;4894935;29;19929;-86
2021/04/21 11:39:14;;;;;;;;;;;;;;;16.21;44.94;99058.44;4895175;29;19963;-85
2021/04/21 11:41:44;;;;;;;;;;;;;;;17.20;42.27;99051.22;4862969;29;20010;-87
2021/04/21 11:44:09;;;;;;;;;;;;;;;16.87;44.26;99057.41;4869485;29;19923;-86
2021/04/21 11:46:53;;;;;;;;;;;;;;;16.07;46.22;99056.59;4879604;29;19962;-85
2021/04/21 11:49:37;;;;;;;;;;;;;;;15.94;43.98;99056.38;4900109;29;20269;-85
2021/04/21 11:52:03;;;;;;;;;;;;;;;16.77;42.47;99041.47;4897542;29;19983;-87
2021/04/21 11:54:28;;;;;;;;;;;;;;;16.75;45.86;99043.31;4866659;29;19927;-84
2021/04/21 11:56:56;;;;;;;;;;;;;;;16.17;44.92;99042.19;4880938;29;20066;-84
2021/04/21 11:59:22;;;;;;;;;;;;;;;15.89;44.04;99043.66;4881227;29;19923;-84
2021/04/21 12:01:47;;;;;;;;;;;;;;;15.32;41.75;99050.09;4882759;29;20691;-85
2021/04/21 12:04:13;;;;;;;;;;;;;;;15.47;42.13;99042.34;4866945;29;20372;-86
2021/04/21 12:06:38;;;;;;;;;;;;;;;15.65;45.78;99042.34;4882708;29;20312;-85
2021/04/21 12:09:03;;;;;;;;;;;;;;;15.76;48.28;99029.66;4866293;29;19919;-85
2021/04/21 12:11:38;;;;;;;;;;;;;;;15.23;50.34;99038.41;4871401;29;19923;-85
2021/04/21 12:14:03;;;;;;;;;;;;;;;15.62;47.06;99039.88;4876348;29;19981;-85
2021/04/21 12:16:29;;;;;;;;;;;;;;;15.87;47.26;99040.31;4896188;29;20022;-84
2021/04/21 12:18:55;;;;;;;;;;;;;;;16.38;40.71;99028.94;4877673;29;20284;-85
2021/04/21 12:21:22;;;;;;;;;;;;;;;16.60;45.09;99034.59;4865898;29;23179;-86
2021/04/21 12:23:48;;;;;;;;;;;;;;;16.02;41.83;99032.63;4880417;29;19991;-85
2021/04/21 12:26:20;;;;;;;;;;;;;;;15.76;39.78;99034.84;4863689;29;19979;-85
2021/04/21 12:28:46;;;;;;;;;;;;;;;16.19;41.35;99024.72;4895317;29;20048;-85
2021/04/21 12:31:12;;;;;;;;;;;;;;;17.11;39.06;99024.78;4894060;29;20606;-85
2021/04/21 12:33:37;;;;;;;;;;;;;;;18.22;39.60;99015.47;4864938;29;20562;-85
2021/04/21 12:36:03;;;;;;;;;;;;;;;16.83;39.81;99022.09;4866138;29;19923;-86
2021/04/21 12:38:29;;;;;;;;;;;;;;;16.29;40.85;99023.31;4892265;29;19929;-86
2021/04/21 12:40:55;;;;;;;;;;;;;;;16.18;43.95;99033.47;4870539;29;19922;-85
2021/04/21 12:43:20;;;;;;;;;;;;;;;16.39;47.25;99026.25;4896649;29;20334;-85
2021/04/21 12:45:46;;;;;;;;;;;;;;;15.91;44.97;99034.94;4878624;29;19923;-85
2021/04/21 12:48:18;;;;;;;;;;;;;;;15.91;44.98;99029.75;4880560;29;20018;-85
2021/04/21 12:50:45;;;;;;;;;;;;;;;15.54;49.20;99026.47;4891943;29;19931;-88
2021/04/21 12:53:11;;;;;;;;;;;;;;;16.27;48.78;99019.97;4871180;29;20018;-85
2021/04/21 12:55:42;;;;;;;;;;;;;;;17.41;45.90;99007.44;4870753;29;19927;-85